Time;durP1;ratioP1;P1;durP2;ratioP2;P2;SDS_P1;SDS_P2;PMS_P1;PMS_P2;Temp;Humidity;BMP_temperature;BMP_pressure;BME280_temperature;BME280_humidity;BME280_pressure;Samples;Min_cycle;Max_cycle;Signal;HPM_P1;HPM_P2
2023/12/26 00:00:24;;;;;;;2.30;0.45;;;16.10;90.20;;;;;;4183627;28;20503;-54
2023/12/26 00:03:06;;;;;;;0.80;0.52;;;16.10;90.20;;;;;;4187288;28;20055;-54
2023/12/26 00:05:47;;;;;;;0.65;0.60;;;16.10;90.40;;;;;;4187392;28;20079;-55
2023/12/26 00:08:28;;;;;;;0.65;0.60;;;16.10;90.30;;;;;;4187609;28;20063;-54
2023/12/26 00:11:09;;;;;;;1.08;1.02;;;16.10;90.10;;;;;;4187152;28;20479;-53
2023/12/26 00:13:51;;;;;;;0.70;0.70;;;16.20;90.10;;;;;;4185621;28;20048;-55
2023/12/26 00:16:33;;;;;;;0.35;0.35;;;16.20;90.00;;;;;;4184174;28;20060;-51
2023/12/26 00:19:14;;;;;;;0.50;0.50;;;16.30;90.00;;;;;;4170493;28;20080;-53
2023/12/26 00:21:55;;;;;;;0.57;0.40;;;16.40;89.80;;;;;;4182264;28;20055;-51
2023/12/26 00:24:36;;;;;;;0.50;0.50;;;16.50;89.40;;;;;;4170873;28;20052;-53
2023/12/26 00:27:17;;;;;;;0.40;0.40;;;16.50;89.30;;;;;;4187323;28;20130;-52
2023/12/26 00:29:59;;;;;;;0.50;0.50;;;16.50;89.00;;;;;;4197904;28;20043;-53
2023/12/26 00:32:41;;;;;;;0.52;0.40;;;16.50;89.10;;;;;;4170923;28;20594;-53
2023/12/26 00:35:22;;;;;;;0.40;0.40;;;16.50;89.00;;;;;;4170060;28;20083;-54
2023/12/26 00:38:04;;;;;;;0.40;0.40;;;16.50;89.10;;;;;;4169085;28;20107;-53
2023/12/26 00:40:45;;;;;;;0.68;0.50;;;16.40;89.30;;;;;;4172096;28;20060;-56
2023/12/26 00:43:26;;;;;;;0.50;0.50;;;16.50;89.30;;;;;;4180269;28;20059;-55
2023/12/26 00:46:07;;;;;;;0.60;0.50;;;16.50;89.10;;;;;;4186982;28;20051;-55
2023/12/26 00:48:50;;;;;;;0.30;0.30;;;16.60;88.90;;;;;;4187297;28;20485;-53
2023/12/26 00:51:32;;;;;;;0.73;0.40;;;16.60;88.70;;;;;;4186647;28;20051;-52
2023/12/26 00:54:13;;;;;;;1.17;0.43;;;16.60;88.70;;;;;;4168959;28;20138;-55
2023/12/26 00:56:54;;;;;;;0.80;0.52;;;16.60;88.70;;;;;;4185531;28;20056;-53
2023/12/26 00:59:35;;;;;;;0.25;0.25;;;16.70;88.40;;;;;;4186352;28;20047;-49
2023/12/26 01:02:16;;;;;;;0.40;0.40;;;16.70;88.40;;;;;;4185430;28;20056;-46
2023/12/26 01:04:59;;;;;;;;;;;16.70;88.50;;;;;;4186102;28;20051;-44
2023/12/26 01:07:41;;;;;;;1.00;0.40;;;16.70;88.50;;;;;;4183967;28;19969;-46
2023/12/26 01:10:23;;;;;;;0.43;0.40;;;16.80;88.40;;;;;;4185993;28;20174;-48
2023/12/26 01:13:05;;;;;;;0.45;0.43;;;16.80;88.20;;;;;;4169006;28;20102;-47
2023/12/26 01:15:46;;;;;;;0.60;0.40;;;16.80;88.90;;;;;;4184234;28;20127;-46
2023/12/26 01:18:27;;;;;;;1.30;0.70;;;16.80;88.00;;;;;;4170453;28;20575;-45
2023/12/26 01:21:10;;;;;;;1.27;0.43;;;16.70;87.50;;;;;;4189826;28;20404;-47
2023/12/26 01:23:52;;;;;;;1.30;0.70;;;16.70;87.70;;;;;;4186619;28;20380;-51
2023/12/26 01:26:33;;;;;;;2.03;0.70;;;16.60;87.90;;;;;;4176949;28;20056;-51
2023/12/26 01:29:15;;;;;;;0.88;0.60;;;16.60;88.30;;;;;;4189687;28;20056;-50
2023/12/26 01:31:56;;;;;;;2.50;0.57;;;16.60;88.60;;;;;;4172954;28;20191;-55
2023/12/26 01:34:38;;;;;;;1.60;0.77;;;16.70;88.60;;;;;;4172084;28;20183;-53
2023/12/26 01:37:20;;;;;;;2.90;0.93;;;16.70;88.30;;;;;;4172525;28;20060;-55
2023/12/26 01:40:01;;;;;;;0.50;0.50;;;16.80;88.20;;;;;;4170554;28;20059;-53
2023/12/26 01:42:45;;;;;;;1.13;0.70;;;16.70;88.00;;;;;;4160388;28;20043;-52
2023/12/26 01:45:26;;;;;;;4.15;1.00;;;16.70;88.00;;;;;;4188965;28;20070;-55
2023/12/26 01:48:10;;;;;;;2.50;0.75;;;16.70;88.10;;;;;;4189392;28;20068;-54
2023/12/26 01:50:51;;;;;;;2.30;0.77;;;16.70;88.30;;;;;;4188897;28;20407;-54
2023/12/26 01:53:38;;;;;;;2.30;0.98;;;16.70;88.20;;;;;;4186674;28;20059;-55
2023/12/26 01:56:21;;;;;;;5.22;0.90;;;16.80;88.10;;;;;;4179983;28;20056;-54
2023/12/26 01:59:03;;;;;;;1.83;0.80;;;16.80;87.80;;;;;;4171733;28;20122;-52
2023/12/26 02:01:45;;;;;;;1.23;0.65;;;16.80;87.70;;;;;;4171789;28;20500;-53
2023/12/26 02:04:26;;;;;;;5.70;1.35;;;16.80;87.70;;;;;;4188650;28;20060;-53
2023/12/26 02:07:07;;;;;;;;;;;16.80;87.80;;;;;;4172392;28;20502;-54
2023/12/26 02:09:53;;;;;;;4.28;1.27;;;16.80;87.70;;;;;;4188261;28;19931;-56
2023/12/26 02:12:34;;;;;;;4.05;1.05;;;16.80;87.40;;;;;;4173525;28;20047;-55
2023/12/26 02:15:15;;;;;;;;;;;16.80;87.40;;;;;;4171417;28;20060;-52
2023/12/26 02:17:57;;;;;;;5.57;1.25;;;16.80;87.40;;;;;;4172524;28;19931;-54
2023/12/26 02:20:39;;;;;;;5.13;1.80;;;16.70;87.60;;;;;;4174589;28;20051;-55
2023/12/26 02:23:21;;;;;;;9.73;1.98;;;16.70;88.10;;;;;;4174015;28;20087;-56
2023/12/26 02:26:04;;;;;;;4.18;1.17;;;16.60;87.90;;;;;;4180935;28;20054;-54
2023/12/26 02:28:46;;;;;;;4.85;1.58;;;16.60;88.30;;;;;;4196407;28;20415;-54
2023/12/26 02:31:28;;;;;;;;;;;16.60;88.60;;;;;;4188069;28;20052;-56
2023/12/26 02:34:09;;;;;;;7.65;2.22;;;16.60;88.40;;;;;;4182165;28;20441;-52
2023/12/26 02:36:51;;;;;;;5.43;1.20;;;16.70;88.30;;;;;;4187954;28;20055;-52
2023/12/26 02:39:32;;;;;;;5.97;1.70;;;16.70;87.90;;;;;;4185830;28;20513;-55
2023/12/26 02:42:16;;;;;;;6.13;1.53;;;16.70;87.90;;;;;;4188131;28;20067;-52
2023/12/26 02:44:57;;;;;;;12.93;1.95;;;16.70;87.80;;;;;;4185677;28;20297;-54
2023/12/26 02:47:38;;;;;;;5.53;1.45;;;16.70;87.80;;;;;;4171666;28;20048;-55
2023/12/26 02:50:20;;;;;;;5.47;1.55;;;16.60;87.90;;;;;;4163933;28;20064;-53
2023/12/26 02:53:01;;;;;;;9.80;1.73;;;16.60;88.40;;;;;;4174757;28;20523;-52
2023/12/26 02:55:42;;;;;;;5.60;1.60;;;16.60;88.40;;;;;;4188270;28;20055;-53
2023/12/26 02:58:24;;;;;;;11.77;1.75;;;16.70;88.10;;;;;;4186711;28;20099;-53
2023/12/26 03:01:06;;;;;;;7.70;1.50;;;16.80;88.10;;;;;;4186892;28;20060;-54
2023/12/26 03:03:48;;;;;;;6.45;1.63;;;16.80;87.80;;;;;;4170624;28;20079;-55
2023/12/26 03:06:29;;;;;;;14.23;2.28;;;16.80;87.70;;;;;;4156190;28;20083;-51
2023/12/26 03:09:11;;;;;;;6.03;1.70;;;16.80;87.40;;;;;;4170071;28;20097;-53
2023/12/26 03:11:53;;;;;;;11.48;1.67;;;16.90;87.10;;;;;;4186740;28;20095;-52
2023/12/26 03:14:36;;;;;;;6.20;1.42;;;16.90;87.20;;;;;;4171900;28;20056;-53
2023/12/26 03:17:18;;;;;;;9.77;1.80;;;16.90;87.20;;;;;;4154831;28;20404;-53
2023/12/26 03:19:59;;;;;;;7.93;1.77;;;16.80;87.10;;;;;;4170947;28;20059;-52
2023/12/26 03:22:41;;;;;;;8.15;1.73;;;16.80;87.00;;;;;;4157453;28;20049;-53
2023/12/26 03:25:22;;;;;;;4.93;1.40;;;16.70;88.10;;;;;;4164466;28;20163;-55
2023/12/26 03:28:04;;;;;;;6.25;1.30;;;16.70;87.40;;;;;;4170188;28;20059;-56
2023/12/26 03:30:47;;;;;;;7.43;1.45;;;16.70;87.70;;;;;;4179621;28;20178;-54
2023/12/26 03:33:27;;;;;;;6.28;1.55;;;16.70;87.70;;;;;;4187619;28;20051;-54
2023/12/26 03:36:09;;;;;;;4.45;1.67;;;16.70;87.50;;;;;;4187624;28;20139;-55
2023/12/26 03:38:51;;;;;;;7.65;1.40;;;16.70;87.50;;;;;;4198088;28;20059;-55
2023/12/26 03:41:31;;;;;;;7.97;1.50;;;16.70;87.20;;;;;;4186343;28;20134;-55
2023/12/26 03:44:13;;;;;;;5.43;1.40;;;16.80;87.30;;;;;;4169989;28;20187;-54
2023/12/26 03:46:55;;;;;;;6.80;1.42;;;16.80;87.00;;;;;;4174124;28;20064;-52
2023/12/26 03:49:36;;;;;;;7.03;1.33;;;16.80;86.80;;;;;;4186874;28;20055;-53
2023/12/26 03:52:17;;;;;;;8.43;1.60;;;16.70;86.80;;;;;;4157685;28;20183;-50
2023/12/26 03:54:59;;;;;;;;;;;16.70;86.70;;;;;;4156924;28;20489;-56
2023/12/26 03:57:41;;;;;;;5.80;1.50;;;16.70;87.00;;;;;;4170458;28;19932;-56
2023/12/26 04:00:22;;;;;;;7.85;1.73;;;16.60;87.40;;;;;;4173106;28;20186;-51
2023/12/26 04:03:06;;;;;;;6.07;1.73;;;16.60;87.80;;;;;;4185881;28;20044;-55
2023/12/26 04:05:46;;;;;;;7.18;1.70;;;16.60;87.80;;;;;;4186352;28;20078;-56
2023/12/26 04:08:28;;;;;;;5.97;2.22;;;16.70;87.70;;;;;;4185270;28;20634;-56
2023/12/26 04:11:10;;;;;;;9.77;1.88;;;16.70;87.60;;;;;;4179194;28;20052;-56
2023/12/26 04:13:52;;;;;;;9.68;2.67;;;16.80;87.10;;;;;;4187076;28;20053;-56
2023/12/26 04:16:33;;;;;;;8.70;1.35;;;16.80;86.90;;;;;;4186269;28;20419;-56
2023/12/26 04:19:15;;;;;;;8.10;2.20;;;16.70;86.80;;;;;;4186128;28;20055;-56
2023/12/26 04:21:56;;;;;;;14.57;3.08;;;16.70;86.80;;;;;;4170979;28;20071;-55
2023/12/26 04:24:37;;;;;;;10.23;1.88;;;16.70;87.00;;;;;;4160970;28;20064;-55
2023/12/26 04:27:18;;;;;;;10.50;1.77;;;16.70;87.10;;;;;;4170892;28;20088;-56
2023/12/26 04:29:59;;;;;;;9.77;2.47;;;16.70;86.80;;;;;;4168711;28;20079;-55
2023/12/26 04:32:40;;;;;;;;;;;16.80;86.80;;;;;;4183289;28;20073;-56
2023/12/26 04:35:23;;;;;;;10.95;2.13;;;16.80;86.80;;;;;;4185569;28;19973;-53
2023/12/26 04:38:05;;;;;;;10.82;2.30;;;16.90;86.50;;;;;;4186138;28;20071;-52
2023/12/26 04:40:46;;;;;;;5.40;1.98;;;16.90;86.10;;;;;;4183766;28;20061;-56
2023/12/26 04:43:26;;;;;;;12.23;2.60;;;16.90;85.50;;;;;;4186539;28;20507;-52
2023/12/26 04:46:07;;;;;;;11.38;2.75;;;16.90;85.60;;;;;;4186338;28;20052;-54
2023/12/26 04:48:49;;;;;;;10.10;2.25;;;16.80;85.60;;;;;;4169156;28;20132;-54
2023/12/26 04:51:31;;;;;;;16.17;2.65;;;16.80;85.70;;;;;;4186443;28;20086;-53
2023/12/26 04:54:13;;;;;;;16.45;2.67;;;16.70;85.80;;;;;;4188183;28;20421;-55
2023/12/26 04:56:54;;;;;;;14.63;2.30;;;16.70;86.10;;;;;;4177049;28;20563;-55
2023/12/26 04:59:38;;;;;;;10.43;2.22;;;16.70;86.50;;;;;;4172529;28;20059;-55
2023/12/26 05:02:19;;;;;;;10.45;2.28;;;16.70;86.20;;;;;;4171512;28;20413;-54
2023/12/26 05:05:00;;;;;;;9.52;2.10;;;16.70;86.40;;;;;;4156003;28;20183;-54
2023/12/26 05:07:43;;;;;;;5.82;1.92;;;16.80;86.60;;;;;;4156458;28;20052;-52
2023/12/26 05:10:23;;;;;;;6.47;2.25;;;16.80;86.10;;;;;;4180620;28;20109;-52
2023/12/26 05:13:05;;;;;;;7.97;1.88;;;16.80;85.70;;;;;;4185923;28;20052;-55
2023/12/26 05:15:46;;;;;;;17.20;2.55;;;16.80;85.60;;;;;;4160295;28;20048;-55
2023/12/26 05:18:27;;;;;;;12.20;1.92;;;16.80;85.80;;;;;;4181981;28;20063;-53
2023/12/26 05:21:17;;;;;;;12.00;2.65;;;16.70;85.90;;;;;;4194504;28;20077;-52
2023/12/26 05:24:00;;;;;;;13.45;1.95;;;16.70;86.00;;;;;;4162426;28;20114;-53
2023/12/26 05:26:42;;;;;;;13.48;2.45;;;16.70;86.30;;;;;;4172891;28;20094;-55
2023/12/26 05:29:23;;;;;;;9.75;2.95;;;16.70;86.50;;;;;;4185893;28;20083;-55
2023/12/26 05:32:07;;;;;;;6.20;2.10;;;16.80;86.20;;;;;;4172749;28;20052;-52
2023/12/26 05:34:48;;;;;;;9.05;2.35;;;16.80;86.30;;;;;;4183513;28;20059;-53
2023/12/26 05:37:29;;;;;;;8.55;1.77;;;16.80;85.80;;;;;;4183668;28;20052;-56
2023/12/26 05:40:13;;;;;;;11.80;2.17;;;16.80;85.90;;;;;;4178774;28;20052;-54
2023/12/26 05:42:54;;;;;;;10.38;1.60;;;16.80;85.90;;;;;;4188023;28;20097;-51
2023/12/26 05:45:37;;;;;;;12.02;2.38;;;16.70;85.80;;;;;;4187478;28;20074;-53
2023/12/26 05:48:18;;;;;;;6.22;2.70;;;16.70;86.00;;;;;;4175377;28;20060;-53
2023/12/26 05:50:59;;;;;;;6.30;1.83;;;16.70;86.40;;;;;;4172381;28;20055;-55
2023/12/26 05:53:40;;;;;;;;;;;16.80;86.30;;;;;;4184753;28;20115;-52
2023/12/26 05:56:23;;;;;;;14.47;2.70;;;16.90;86.00;;;;;;4189558;28;20390;-53
2023/12/26 05:59:04;;;;;;;11.43;1.80;;;16.90;85.70;;;;;;4176946;28;20607;-51
2023/12/26 06:01:46;;;;;;;8.93;1.73;;;16.90;85.40;;;;;;4188822;28;20202;-55
2023/12/26 06:04:27;;;;;;;5.82;1.58;;;16.90;85.20;;;;;;4188726;28;20438;-54
2023/12/26 06:07:08;;;;;;;7.28;1.80;;;16.80;85.00;;;;;;4183795;28;20064;-51
2023/12/26 06:09:49;;;;;;;6.43;1.92;;;16.80;85.20;;;;;;4161253;28;20068;-55
2023/12/26 06:12:33;;;;;;;5.65;1.90;;;16.70;85.20;;;;;;4167768;28;20060;-50
2023/12/26 06:15:14;;;;;;;11.48;2.58;;;16.70;85.60;;;;;;4168282;28;20436;-53
2023/12/26 06:17:58;;;;;;;9.10;1.80;;;16.70;85.90;;;;;;4171513;28;20610;-53
2023/12/26 06:20:40;;;;;;;12.10;2.00;;;16.70;86.30;;;;;;4191910;28;20079;-55
2023/12/26 06:23:21;;;;;;;7.82;1.65;;;16.70;85.80;;;;;;4188048;28;20052;-54
2023/12/26 06:26:02;;;;;;;6.05;1.77;;;16.80;85.80;;;;;;4186427;28;20048;-54
2023/12/26 06:28:47;;;;;;;11.43;2.50;;;16.80;85.90;;;;;;4178548;28;20060;-53
2023/12/26 06:31:28;;;;;;;7.50;1.88;;;16.80;85.60;;;;;;4181699;28;20188;-53
2023/12/26 06:34:09;;;;;;;8.30;2.28;;;16.90;85.50;;;;;;4170418;28;20060;-54
2023/12/26 06:36:50;;;;;;;4.85;1.30;;;16.90;85.40;;;;;;4170486;28;20492;-54
2023/12/26 06:39:32;;;;;;;7.07;1.80;;;16.90;85.20;;;;;;4169758;28;20063;-54
2023/12/26 06:42:13;;;;;;;13.27;3.53;;;16.80;85.10;;;;;;4186864;28;20105;-52
2023/12/26 06:44:55;;;;;;;8.63;1.60;;;16.80;85.30;;;;;;4181627;28;20051;-53
2023/12/26 06:47:37;;;;;;;6.05;1.60;;;16.80;85.20;;;;;;4170575;28;20313;-54
2023/12/26 06:50:18;;;;;;;8.40;1.85;;;16.80;85.50;;;;;;4176912;28;20059;-55
2023/12/26 06:52:59;;;;;;;9.32;1.88;;;16.80;84.30;;;;;;4170039;28;20415;-56
2023/12/26 06:55:41;;;;;;;7.25;2.05;;;16.90;84.20;;;;;;4186706;28;20133;-53
2023/12/26 06:58:22;;;;;;;8.93;1.73;;;16.90;85.20;;;;;;4183177;28;20537;-55
2023/12/26 07:01:08;;;;;;;8.05;1.75;;;16.90;84.30;;;;;;4182776;28;20056;-52
2023/12/26 07:03:50;;;;;;;6.57;1.98;;;16.90;84.80;;;;;;4186566;28;20048;-52
2023/12/26 07:06:31;;;;;;;11.63;2.20;;;16.90;85.00;;;;;;4170230;28;20055;-52
2023/12/26 07:09:12;;;;;;;;;;;16.90;84.80;;;;;;4177461;28;20052;-53
2023/12/26 07:11:53;;;;;;;7.20;1.58;;;16.90;84.80;;;;;;4170699;28;19932;-55
2023/12/26 07:14:34;;;;;;;9.63;2.22;;;16.80;84.90;;;;;;4183360;28;20052;-55
2023/12/26 07:17:17;;;;;;;8.25;1.90;;;16.80;85.00;;;;;;4180441;28;20074;-51
2023/12/26 07:19:58;;;;;;;12.32;2.05;;;16.80;85.00;;;;;;4187126;28;20105;-55
2023/12/26 07:22:39;;;;;;;8.88;2.20;;;16.90;84.80;;;;;;4182629;28;20047;-54
2023/12/26 07:25:20;;;;;;;7.80;1.85;;;17.00;84.50;;;;;;4186558;28;20146;-50
2023/12/26 07:28:01;;;;;;;8.98;2.10;;;17.00;84.40;;;;;;4169691;28;20055;-55
2023/12/26 07:30:42;;;;;;;5.53;2.30;;;17.00;84.10;;;;;;4186853;28;20411;-54
2023/12/26 07:33:24;;;;;;;;;;;17.00;84.00;;;;;;4187796;28;20052;-56
2023/12/26 07:36:11;;;;;;;13.55;2.60;;;16.90;84.00;;;;;;4182483;28;19928;-53
2023/12/26 07:38:52;;;;;;;12.98;2.50;;;16.80;83.90;;;;;;4156830;28;20059;-52
2023/12/26 07:41:34;;;;;;;8.15;2.17;;;16.80;83.30;;;;;;4185907;28;20063;-52
2023/12/26 07:44:14;;;;;;;8.57;2.13;;;16.80;82.80;;;;;;4186955;28;20057;-53
2023/12/26 07:46:56;;;;;;;12.23;2.63;;;16.80;82.20;;;;;;4186380;28;20158;-52
2023/12/26 07:49:38;;;;;;;10.93;2.20;;;16.80;82.00;;;;;;4186687;28;20194;-53
2023/12/26 07:52:19;;;;;;;12.40;2.72;;;16.80;81.70;;;;;;4175020;28;20507;-54
2023/12/26 07:55:00;;;;;;;8.88;2.33;;;16.80;81.30;;;;;;4158449;28;20057;-52
2023/12/26 07:57:41;;;;;;;8.32;2.03;;;16.80;81.30;;;;;;4154358;28;20052;-53
2023/12/26 08:00:22;;;;;;;7.13;2.10;;;16.70;81.30;;;;;;4175715;28;20108;-54
2023/12/26 08:03:03;;;;;;;11.40;2.53;;;16.70;81.30;;;;;;4185716;28;20094;-52
2023/12/26 08:05:46;;;;;;;9.25;2.22;;;16.60;81.50;;;;;;4186923;28;20059;-52
2023/12/26 08:08:28;;;;;;;15.45;3.22;;;16.60;81.60;;;;;;4186948;28;20055;-49
2023/12/26 08:11:09;;;;;;;9.77;2.40;;;16.60;81.40;;;;;;4186581;28;20082;-55
2023/12/26 08:13:50;;;;;;;9.18;2.40;;;16.60;81.20;;;;;;4185964;28;20133;-53
2023/12/26 08:16:31;;;;;;;12.48;2.30;;;16.60;81.20;;;;;;4184076;28;20055;-52
2023/12/26 08:19:12;;;;;;;8.88;1.90;;;16.60;81.30;;;;;;4185009;28;20060;-53
2023/12/26 08:21:55;;;;;;;7.70;1.98;;;16.60;80.90;;;;;;4179209;28;20071;-58
2023/12/26 08:24:36;;;;;;;10.60;2.33;;;16.70;80.90;;;;;;4187206;28;20142;-54
2023/12/26 08:27:18;;;;;;;9.00;2.05;;;16.60;81.20;;;;;;4187153;28;20063;-51
2023/12/26 08:29:59;;;;;;;9.07;1.52;;;16.70;81.00;;;;;;4189578;28;20059;-54
2023/12/26 08:32:40;;;;;;;10.63;3.38;;;16.70;80.70;;;;;;4189561;28;20051;-55
2023/12/26 08:35:21;;;;;;;11.23;2.85;;;16.70;80.60;;;;;;4173748;28;20396;-53
2023/12/26 08:38:04;;;;;;;9.98;2.45;;;16.70;79.90;;;;;;4176952;28;20192;-52
2023/12/26 08:40:45;;;;;;;11.77;2.25;;;16.60;80.10;;;;;;4187314;28;20063;-55
2023/12/26 08:43:28;;;;;;;10.68;2.38;;;16.60;80.10;;;;;;4188432;28;20042;-52
2023/12/26 08:46:09;;;;;;;16.05;2.95;;;16.50;80.40;;;;;;4180126;28;20056;-55
2023/12/26 08:48:50;;;;;;;11.80;2.08;;;16.50;80.40;;;;;;4172902;28;20126;-52
2023/12/26 08:51:32;;;;;;;8.23;2.40;;;16.40;80.60;;;;;;4160606;28;20143;-55
2023/12/26 08:54:14;;;;;;;6.90;1.65;;;16.40;80.70;;;;;;4189976;28;20063;-53
2023/12/26 08:56:56;;;;;;;9.88;2.50;;;16.40;81.90;;;;;;4173455;28;20055;-54
2023/12/26 08:59:37;;;;;;;11.32;2.30;;;16.30;80.90;;;;;;4165798;28;20056;-55
2023/12/26 09:02:18;;;;;;;11.95;2.20;;;16.30;80.70;;;;;;4183232;28;20068;-54
2023/12/26 09:04:59;;;;;;;15.82;4.25;;;16.30;80.70;;;;;;4172375;28;20056;-54
2023/12/26 09:07:41;;;;;;;13.27;2.70;;;16.30;80.50;;;;;;4156109;28;20114;-54
2023/12/26 09:10:23;;;;;;;12.27;2.65;;;16.20;80.30;;;;;;4188216;28;20075;-53
2023/12/26 09:13:04;;;;;;;10.88;2.17;;;16.20;80.50;;;;;;4189332;28;20055;-53
2023/12/26 09:15:45;;;;;;;13.32;2.28;;;16.10;80.60;;;;;;4186087;28;20527;-52
2023/12/26 09:18:26;;;;;;;11.23;2.20;;;16.10;80.50;;;;;;4157991;28;20067;-51
2023/12/26 09:21:07;;;;;;;11.35;1.65;;;16.10;80.90;;;;;;4157609;28;20073;-53
2023/12/26 09:23:48;;;;;;;11.82;2.33;;;16.00;80.90;;;;;;4173255;28;20048;-51
2023/12/26 09:26:31;;;;;;;10.52;1.90;;;15.90;81.20;;;;;;4156418;28;20056;-52
2023/12/26 09:29:12;;;;;;;12.02;2.80;;;15.90;81.30;;;;;;4164477;28;20052;-55
2023/12/26 09:31:54;;;;;;;11.80;2.00;;;15.90;81.70;;;;;;4172985;28;20076;-53
2023/12/26 09:34:35;;;;;;;7.60;2.10;;;15.80;81.90;;;;;;4173016;28;20060;-51
2023/12/26 09:37:17;;;;;;;14.60;2.22;;;15.80;81.80;;;;;;4158990;28;20048;-55
2023/12/26 09:39:58;;;;;;;10.23;2.35;;;15.80;81.80;;;;;;4171563;28;20118;-54
2023/12/26 09:42:41;;;;;;;9.02;1.92;;;15.80;81.70;;;;;;4189138;28;20048;-55
2023/12/26 09:45:25;;;;;;;12.70;2.40;;;15.80;81.50;;;;;;4188300;28;20058;-55
2023/12/26 09:48:07;;;;;;;8.77;1.98;;;15.90;81.60;;;;;;4188627;28;20174;-55
2023/12/26 09:50:50;;;;;;;9.60;1.98;;;15.80;81.40;;;;;;4187722;28;20051;-54
2023/12/26 09:53:34;;;;;;;14.02;2.85;;;15.80;81.30;;;;;;4189135;28;20483;-53
2023/12/26 09:56:15;;;;;;;11.10;2.00;;;15.80;81.00;;;;;;4172815;28;20063;-54
2023/12/26 09:59:01;;;;;;;9.13;1.63;;;15.70;81.20;;;;;;4183008;28;20060;-55
2023/12/26 10:01:44;;;;;;;11.15;2.70;;;15.70;81.40;;;;;;4182408;28;20047;-54
2023/12/26 10:04:25;;;;;;;10.38;2.08;;;15.70;81.20;;;;;;4172343;28;20056;-54
2023/12/26 10:07:06;;;;;;;9.43;1.92;;;15.60;81.40;;;;;;4152617;28;20456;-55
2023/12/26 10:09:48;;;;;;;9.60;2.22;;;15.60;81.00;;;;;;4185950;28;20089;-55
2023/12/26 10:12:30;;;;;;;;;;;15.50;81.00;;;;;;4189175;28;20097;-50
2023/12/26 10:15:13;;;;;;;12.23;2.08;;;15.50;80.90;;;;;;4172138;28;20457;-54
2023/12/26 10:17:54;;;;;;;12.95;2.75;;;15.50;81.20;;;;;;4172001;28;20059;-55
2023/12/26 10:20:35;;;;;;;11.73;3.13;;;15.40;81.00;;;;;;4172347;28;20175;-54
2023/12/26 10:23:18;;;;;;;8.63;2.35;;;15.40;81.50;;;;;;4159240;28;20060;-51
2023/12/26 10:26:00;;;;;;;13.13;2.05;;;15.40;81.30;;;;;;4177275;28;20086;-55
2023/12/26 10:28:42;;;;;;;8.30;3.05;;;15.40;81.80;;;;;;4172065;28;20068;-55
2023/12/26 10:31:27;;;;;;;12.13;2.67;;;15.30;81.30;;;;;;4187938;28;20052;-55
2023/12/26 10:34:16;;;;;;;10.98;2.53;;;15.30;81.90;;;;;;4178469;28;20210;-54
2023/12/26 10:36:58;;;;;;;11.20;2.28;;;15.40;82.30;;;;;;4188575;28;20059;-53
2023/12/26 10:39:42;;;;;;;15.10;2.75;;;15.50;81.80;;;;;;4176898;28;20047;-55
2023/12/26 10:42:22;;;;;;;17.42;2.95;;;15.50;81.20;;;;;;4179550;28;20069;-54
2023/12/26 10:45:05;;;;;;;11.57;2.10;;;15.60;81.20;;;;;;4186625;28;20060;-55
2023/12/26 10:47:49;;;;;;;13.77;2.35;;;15.60;81.00;;;;;;4187593;28;20123;-56
2023/12/26 10:50:33;;;;;;;11.88;2.60;;;15.60;80.60;;;;;;4187017;28;20407;-54
2023/12/26 10:53:17;;;;;;;13.52;3.17;;;15.60;80.60;;;;;;4187283;28;20412;-55
2023/12/26 10:55:59;;;;;;;7.68;2.08;;;15.60;80.40;;;;;;4171406;28;20411;-56
2023/12/26 10:58:41;;;;;;;11.00;2.22;;;15.60;80.70;;;;;;4177630;28;20058;-55
2023/12/26 13:53:17;;;;;;;3.92;1.17;;;14.90;84.20;;;;;;4182639;28;20071;-51
2023/12/26 13:55:58;;;;;;;3.53;1.23;;;14.90;83.80;;;;;;4156109;28;20061;-53
2023/12/26 13:58:39;;;;;;;2.47;0.95;;;14.90;83.50;;;;;;4185620;28;20521;-50
2023/12/26 14:01:20;;;;;;;4.68;1.58;;;14.90;83.40;;;;;;4182312;28;20063;-51
2023/12/26 14:04:03;;;;;;;2.92;1.80;;;14.90;83.10;;;;;;4184296;28;20051;-49
2023/12/26 14:06:46;;;;;;;4.40;1.13;;;14.90;82.80;;;;;;4187475;28;20055;-52
2023/12/26 14:09:29;;;;;;;4.07;1.02;;;14.90;82.60;;;;;;4176890;28;20113;-49
2023/12/26 14:12:09;;;;;;;5.30;1.45;;;14.90;82.60;;;;;;4181498;28;20510;-52
2023/12/26 14:14:50;;;;;;;2.40;1.25;;;14.90;82.10;;;;;;4188137;28;20487;-52
2023/12/26 14:17:31;;;;;;;3.42;1.23;;;14.90;82.20;;;;;;4187134;28;20052;-50
2023/12/26 14:20:12;;;;;;;3.05;1.45;;;14.90;82.20;;;;;;4189012;28;20818;-54
2023/12/26 14:22:53;;;;;;;6.60;1.23;;;14.90;82.30;;;;;;4188013;28;20047;-49
2023/12/26 14:25:35;;;;;;;3.60;1.13;;;14.90;82.10;;;;;;4173066;28;20055;-51
2023/12/26 14:28:16;;;;;;;5.28;1.30;;;14.90;82.00;;;;;;4171983;28;20067;-51
2023/12/26 14:30:59;;;;;;;2.72;1.10;;;14.90;82.00;;;;;;4176911;28;20059;-54
2023/12/26 14:33:41;;;;;;;3.63;1.02;;;14.80;81.90;;;;;;4178719;28;20082;-50
2023/12/26 14:36:22;;;;;;;3.78;1.25;;;14.80;81.80;;;;;;4186508;28;20055;-49
2023/12/26 14:39:03;;;;;;;5.53;0.95;;;14.80;81.80;;;;;;4180570;28;20063;-50
2023/12/26 14:41:46;;;;;;;6.75;1.23;;;14.80;81.70;;;;;;4182433;28;20060;-51
2023/12/26 14:44:27;;;;;;;5.28;1.17;;;14.80;81.70;;;;;;4175029;28;20103;-52
2023/12/26 14:47:08;;;;;;;2.88;1.38;;;14.70;81.60;;;;;;4174135;28;20102;-43
2023/12/26 14:49:49;;;;;;;5.80;1.45;;;14.70;81.60;;;;;;4169967;28;20074;-46
2023/12/26 14:52:30;;;;;;;4.18;0.95;;;14.70;81.90;;;;;;4167862;28;20568;-44
2023/12/26 14:55:11;;;;;;;7.93;1.75;;;14.60;81.90;;;;;;4177657;28;20498;-43
2023/12/26 14:57:53;;;;;;;5.07;1.00;;;14.60;81.80;;;;;;4183732;28;20059;-42
2023/12/26 15:00:34;;;;;;;6.88;1.27;;;14.60;81.90;;;;;;4187963;28;20059;-42
2023/12/26 15:03:15;;;;;;;3.75;1.45;;;14.60;81.90;;;;;;4171778;28;20522;-51
2023/12/26 15:05:56;;;;;;;5.63;1.02;;;14.60;82.10;;;;;;4172554;28;20060;-51
2023/12/26 15:08:37;;;;;;;6.15;1.45;;;14.50;81.90;;;;;;4169629;28;20055;-50
2023/12/26 15:11:19;;;;;;;7.43;1.10;;;14.50;82.00;;;;;;4185947;28;20059;-52
2023/12/26 15:14:01;;;;;;;3.35;1.00;;;14.50;82.10;;;;;;4178217;28;20116;-50
2023/12/26 15:16:50;;;;;;;4.25;1.75;;;14.50;82.20;;;;;;4171452;28;20064;-54
2023/12/26 15:19:31;;;;;;;6.68;1.90;;;14.40;82.90;;;;;;4174948;28;20716;-54
2023/12/26 15:22:12;;;;;;;8.05;3.55;;;14.40;83.20;;;;;;4185793;28;20493;-55
2023/12/26 15:24:54;;;;;;;7.38;2.25;;;14.40;83.40;;;;;;4186659;28;20056;-54
2023/12/26 15:27:35;;;;;;;4.68;2.13;;;14.40;84.30;;;;;;4171000;28;20080;-54
2023/12/26 15:30:17;;;;;;;11.90;3.55;;;14.50;85.40;;;;;;4171043;28;20052;-51
2023/12/26 15:32:59;;;;;;;6.40;3.17;;;14.60;85.60;;;;;;4170921;28;20811;-52
2023/12/26 15:35:43;;;;;;;;;;;14.70;85.50;;;;;;4154785;28;20512;-55
2023/12/26 15:38:23;;;;;;;10.38;2.67;;;14.80;85.30;;;;;;4169540;28;19927;-52
2023/12/26 15:41:05;;;;;;;9.40;3.05;;;14.80;85.40;;;;;;4170385;28;20056;-55
2023/12/26 15:43:46;;;;;;;14.23;3.75;;;14.90;85.20;;;;;;4170795;28;20067;-51
2023/12/26 15:46:28;;;;;;;;;;;14.90;85.40;;;;;;4170883;28;20182;-55
2023/12/26 15:49:10;;;;;;;3.95;1.80;;;14.90;85.40;;;;;;4170310;28;19928;-54
2023/12/26 15:51:51;;;;;;;5.55;1.88;;;15.00;86.30;;;;;;4170412;28;20118;-54
2023/12/26 15:54:32;;;;;;;7.03;2.92;;;15.10;85.10;;;;;;4170367;28;20612;-50
2023/12/26 15:57:13;;;;;;;7.43;2.08;;;15.10;84.80;;;;;;4170027;28;20503;-54
2023/12/26 15:59:54;;;;;;;9.18;3.85;;;15.10;84.70;;;;;;4174348;28;20190;-54
2023/12/26 16:02:37;;;;;;;12.10;3.58;;;15.10;84.70;;;;;;4170166;28;20098;-54
2023/12/26 16:05:17;;;;;;;7.85;3.22;;;15.20;84.80;;;;;;4170412;28;20444;-53
2023/12/26 16:07:59;;;;;;;14.50;5.53;;;15.30;84.00;;;;;;4169999;28;20106;-52
2023/12/26 16:10:41;;;;;;;9.43;2.88;;;15.50;83.80;;;;;;4186713;28;20059;-52
2023/12/26 16:13:22;;;;;;;11.77;3.30;;;15.50;83.20;;;;;;4186803;28;20182;-51
2023/12/26 16:16:04;;;;;;;10.60;4.43;;;15.60;83.10;;;;;;4172475;28;20117;-52
2023/12/26 16:18:49;;;;;;;7.47;1.45;;;15.60;83.00;;;;;;4185428;28;20050;-52
2023/12/26 16:21:30;;;;;;;8.00;2.90;;;15.60;82.50;;;;;;4170705;28;20056;-54
2023/12/26 16:24:12;;;;;;;8.18;3.72;;;15.60;82.60;;;;;;4186474;28;20056;-53
2023/12/26 16:26:53;;;;;;;16.02;7.05;;;15.60;82.90;;;;;;4186173;28;20056;-53
2023/12/26 16:29:36;;;;;;;10.55;2.53;;;15.60;83.00;;;;;;4185898;28;20059;-55
2023/12/26 16:32:18;;;;;;;7.47;2.40;;;15.50;82.90;;;;;;4179125;28;20427;-55
2023/12/26 16:35:04;;;;;;;15.93;5.72;;;15.50;82.80;;;;;;4186503;28;20085;-54
2023/12/26 16:37:45;;;;;;;9.18;2.92;;;15.50;82.90;;;;;;4186911;28;20396;-53
2023/12/26 16:40:26;;;;;;;9.07;2.95;;;15.60;83.10;;;;;;4175958;28;20094;-53
2023/12/26 16:43:07;;;;;;;10.32;3.80;;;15.60;82.80;;;;;;4186673;28;20558;-53
2023/12/26 16:45:48;;;;;;;13.10;3.22;;;15.60;82.70;;;;;;4186359;28;20052;-55
2023/12/26 16:48:29;;;;;;;8.45;3.33;;;15.70;82.50;;;;;;4185051;28;20093;-54
2023/12/26 16:51:12;;;;;;;;;;;15.70;82.40;;;;;;4188771;28;20703;-55
2023/12/26 16:53:54;;;;;;;9.40;2.92;;;15.70;82.80;;;;;;4186332;28;19953;-54